Tuesday, July 25, 2017, 2:34 AM EDT

KOXB, Ocean City Municipal Airport

Location: Berlin, MD, United States Lat: 38.317
Local Time: 2:34 AM EDT ( 6:34 GMT) Lon: -75.117
Time Zone: US/Eastern Elev: 13 ft

Show me the last for .
Show Decoded

2017-07-25 02:28 METAR KOXB 250628Z AUTO 35010KT 3SM +RA BR FEW031 BKN048 OVC060 22/21 A2992 RMK
                 AO2 PK WND 02027/0554 WSHFT 0547 LTG DSNT NE AND E RAB21 P0009 T02220211 =
2017-07-25 02:19 METAR KOXB 250619Z AUTO 36007KT 10SM VCTS FEW011 BKN039 OVC060 23/21 A2993 RMK
                 AO2 PK WND 02027/0554 WSHFT 0547 LTG DSNT N-E T02280211 =
2017-07-25 02:01 METAR KOXB 250601Z AUTO 01017G27KT 10SM VCTS FEW011 SCT024 BKN029 23/21 A2992
                 RMK AO2 PK WND 02027/0554 WSHFT 0547 LTG DSNT ALQDS T02330211 =
2017-07-25 01:53 METAR KOXB 250553Z AUTO 36019G27KT 10SM VCTS FEW011 SCT021 SCT070 26/24 A2991
                 RMK AO2 PK WND 35027/0552 LTG DSNT W-NE PRESRR SLP126 T02560239 10272 20244
                 53009 =
2017-07-25 00:53 METAR KOXB 250453Z AUTO 21008KT 10SM CLR 24/23 A2987 RMK AO2 LTG DSNT NW-NE
                 SLP115 T02440233 403170244 =
2017-07-24 23:53 METAR KOXB 250353Z AUTO 20004KT 10SM CLR 24/23 A2987 RMK AO2 SLP116 T02440233 =
2017-07-24 22:53 METAR KOXB 250253Z AUTO VRB04KT 10SM CLR 26/24 A2988 RMK AO2 SLP117 T02560239
                 53010 =
2017-07-24 21:53 METAR KOXB 250153Z AUTO 21006KT 10SM CLR 26/23 A2987 RMK AO2 SLP115 T02560233 =
2017-07-24 20:53 METAR KOXB 250053Z AUTO 20005KT 10SM CLR 26/23 A2984 RMK AO2 SLP106 T02560228 =
2017-07-24 19:53 METAR KOXB 242353Z AUTO 25003KT 10SM CLR 27/23 A2985 RMK AO2 SLP107 T02720233
                 10317 20272 53009 =
2017-07-24 18:53 METAR KOXB 242253Z AUTO 00000KT 10SM CLR 29/22 A2984 RMK AO2 SLP103 T02890217 =
2017-07-24 18:26 METAR KOXB 242226Z AUTO 28005KT 10SM FEW002 29/21 A2983 RMK AO2 T02940211 =
2017-07-24 17:53 METAR KOXB 242153Z AUTO 28005KT 10SM CLR 30/22 A2983 RMK AO2 SLP102 T03000222 =
2017-07-24 16:53 METAR KOXB 242053Z AUTO 32007KT 10SM SCT036 30/23 A2982 RMK AO2 SLP099 T03000233
                 53002 =
2017-07-24 15:53 METAR KOXB 241953Z AUTO 28007KT 10SM SCT041 31/23 A2982 RMK AO2 SLP097 T03060228
                 =
2017-07-24 14:53 METAR KOXB 241853Z AUTO 26008KT 10SM FEW030 32/23 A2982 RMK AO2 SLP097 T03170228
                 =
2017-07-24 13:53 METAR KOXB 241753Z AUTO 25008KT 10SM CLR 30/23 A2982 RMK AO2 SLP097 T03000233
                 10300 20261 50001 =
2017-07-24 12:53 METAR KOXB 241653Z AUTO 25006KT 10SM CLR 29/24 A2982 RMK AO2 SLP099 T02890239 =
2017-07-24 11:53 METAR KOXB 241553Z AUTO 27008KT 10SM FEW022 28/24 A2982 RMK AO2 SLP097 T02780239
                 =
2017-07-24 10:53 METAR KOXB 241453Z AUTO 28008KT 10SM CLR 27/23 A2982 RMK AO2 SLP096 T02670233
                 53014 =
2017-07-24 09:53 METAR KOXB 241353Z AUTO 25008KT 10SM CLR 27/23 A2979 RMK AO2 SLP089 T02670228 =
2017-07-24 08:53 METAR KOXB 241253Z AUTO 26008KT 10SM CLR 27/23 A2979 RMK AO2 SLP087 T02670233 =
2017-07-24 07:53 METAR KOXB 241153Z AUTO 26008G16KT 10SM CLR 26/23 A2977 RMK AO2 SLP082 60000
                 70021 T02610233 10261 20244 53004 =
2017-07-24 06:53 METAR KOXB 241053Z AUTO 22006KT 10SM FEW085 24/23 A2977 RMK AO2 RAB06E16 SLP081
                 P0000 T02440233 =
2017-07-24 05:53 METAR KOXB 240953Z AUTO 24010KT 10SM SCT085 26/23 A2977 RMK AO2 LTG DSNT SW
                 SLP079 T02560228 =
2017-07-24 04:53 METAR KOXB 240853Z AUTO 24008KT 10SM CLR 26/23 A2976 RMK AO2 SLP078 T02610233
                 53013 =
2017-07-24 03:53 METAR KOXB 240753Z AUTO 23005KT 10SM CLR 25/23 A2973 RMK AO2 SLP067 T02500233 =
2017-07-24 02:53 METAR KOXB 240653Z AUTO 24008KT 10SM CLR 25/23 A2973 RMK AO2 SLP065 T02500228 =

Support USWX by starting your Amazon purchase here.